Time;durP1;ratioP1;P1;durP2;ratioP2;P2;SDS_P1;SDS_P2;PMS_P1;PMS_P2;Temp;Humidity;BMP_temperature;BMP_pressure;BME280_temperature;BME280_humidity;BME280_pressure;Samples;Min_cycle;Max_cycle;Signal;HPM_P1;HPM_P2
2022/07/18 00:02:02;;;;;;;6.15;2.85;;;;;;;16.32;59.03;101891.63;4940045;29;20075;-85
2022/07/18 00:04:30;;;;;;;5.55;3.08;;;;;;;16.29;59.09;101888.13;4937576;29;20043;-84
2022/07/18 00:06:57;;;;;;;4.32;2.67;;;;;;;16.25;59.44;101897.00;4944051;28;20098;-82
2022/07/18 00:09:23;;;;;;;4.13;2.78;;;;;;;16.19;59.39;101890.00;4935046;29;20077;-82
2022/07/18 00:11:52;;;;;;;3.00;2.70;;;;;;;16.15;59.66;101883.91;4931384;28;20059;-83
2022/07/18 00:14:21;;;;;;;3.95;3.08;;;;;;;16.12;59.99;101880.44;4942043;29;20118;-85
2022/07/18 00:16:49;;;;;;;3.00;2.70;;;;;;;16.11;60.16;101882.19;4943897;28;20070;-84
2022/07/18 00:19:17;;;;;;;5.47;3.50;;;;;;;16.12;60.40;101883.06;4944013;29;20111;-83
2022/07/18 00:21:43;;;;;;;4.03;3.08;;;;;;;16.14;60.48;101884.81;4920822;29;20051;-85
2022/07/18 00:24:11;;;;;;;4.05;2.88;;;;;;;16.15;60.59;101888.31;4928576;29;20058;-83
2022/07/18 00:26:39;;;;;;;3.72;2.78;;;;;;;16.13;60.47;101893.63;4943582;29;20066;-85
2022/07/18 00:29:05;;;;;;;4.88;3.10;;;;;;;16.09;60.63;101889.25;4926908;28;20039;-83
2022/07/18 00:31:33;;;;;;;5.78;3.20;;;;;;;16.06;60.68;101893.69;4946344;28;20047;-84
2022/07/18 00:33:59;;;;;;;5.07;2.85;;;;;;;16.01;61.52;101886.72;4944850;28;20071;-85
2022/07/18 00:36:30;;;;;;;2.85;2.45;;;;;;;15.96;61.03;101890.31;4933401;29;20035;-84
2022/07/18 00:38:57;;;;;;;3.30;2.75;;;;;;;15.90;61.25;101885.94;4931093;28;20170;-85
2022/07/18 00:41:24;;;;;;;3.90;2.28;;;;;;;15.88;61.24;101885.97;4941870;29;20145;-85
2022/07/18 00:43:52;;;;;;;2.53;2.33;;;;;;;15.88;61.18;101878.06;4929494;29;20053;-84
2022/07/18 00:46:24;;;;;;;3.47;2.30;;;;;;;15.89;61.57;101881.56;4926634;28;20079;-84
2022/07/18 00:48:52;;;;;;;5.35;3.13;;;;;;;15.87;61.54;101867.53;4939802;29;20409;-84
2022/07/18 00:51:20;;;;;;;2.88;2.60;;;;;;;15.84;61.43;101862.28;4943030;29;20051;-83
2022/07/18 00:53:48;;;;;;;7.32;2.50;;;;;;;15.80;61.96;101866.69;4937094;29;20059;-85
2022/07/18 00:56:20;;;;;;;3.97;3.42;;;;;;;15.78;62.16;101864.94;4925199;28;20075;-84
2022/07/18 00:58:48;;;;;;;3.63;3.08;;;;;;;15.77;62.38;101861.41;4924959;29;20047;-84
2022/07/18 01:03:59;;;;;;;3.03;2.55;;;;;;;15.79;62.40;101853.50;4939080;29;20039;-83
2022/07/18 01:06:25;;;;;;;4.40;3.22;;;;;;;15.80;62.63;101849.94;4942217;28;20043;-83
2022/07/18 01:08:52;;;;;;;7.10;4.05;;;;;;;15.79;62.85;101872.00;4942397;29;20066;-82
2022/07/18 01:11:21;;;;;;;3.78;3.47;;;;;;;15.76;63.12;101867.63;4948384;28;20054;-83
2022/07/18 01:13:51;;;;;;;4.53;3.85;;;;;;;15.77;63.07;101864.06;4934606;29;20066;-85
2022/07/18 01:16:18;;;;;;;4.68;3.17;;;;;;;15.76;63.57;101858.81;4940084;28;20048;-85
2022/07/18 01:18:51;;;;;;;5.90;3.13;;;;;;;15.71;63.99;101866.78;4933570;28;20055;-87
2022/07/18 01:21:18;;;;;;;9.93;3.65;;;;;;;15.65;64.14;101859.78;4956773;28;20039;-83
2022/07/18 01:23:46;;;;;;;4.93;3.10;;;;;;;15.60;64.90;101855.47;4923924;28;20047;-84
2022/07/18 01:26:17;;;;;;;3.70;3.15;;;;;;;15.54;65.33;101853.78;4942146;28;20097;-85
2022/07/18 01:28:45;;;;;;;4.53;3.08;;;;;;;15.50;65.60;101858.22;4940146;28;20143;-84
2022/07/18 01:31:12;;;;;;;5.00;2.55;;;;;;;15.46;66.36;101855.59;4945956;28;20088;-84
2022/07/18 01:33:39;;;;;;;6.70;2.78;;;;;;;15.42;66.59;101849.47;4944149;29;20362;-83
2022/07/18 01:36:07;;;;;;;3.00;2.70;;;;;;;15.38;67.27;101855.66;4942056;28;20071;-83
2022/07/18 01:38:35;;;;;;;4.25;2.78;;;;;;;15.32;67.91;101853.13;4943251;28;20059;-85
2022/07/18 01:41:02;;;;;;;3.13;2.60;;;;;;;15.27;68.45;101857.56;4948554;29;20062;-83
2022/07/18 01:43:29;;;;;;;2.67;2.38;;;;;;;15.23;68.92;101848.78;4925506;29;20071;-84
2022/07/18 01:45:57;;;;;;;2.08;1.90;;;;;;;15.18;69.07;101846.19;4943209;28;20047;-85
2022/07/18 01:48:24;;;;;;;8.13;2.42;;;;;;;15.13;69.46;101840.06;4942887;29;20053;-85
2022/07/18 01:50:52;;;;;;;3.22;2.35;;;;;;;15.11;69.72;101846.25;4946327;29;20059;-84
2022/07/18 01:53:19;;;;;;;3.67;2.25;;;;;;;15.06;69.68;101838.41;4927509;29;20055;-83
2022/07/18 01:55:47;;;;;;;4.10;2.03;;;;;;;15.04;70.11;101842.78;4925442;28;20114;-84
2022/07/18 01:58:14;;;;;;;4.65;2.30;;;;;;;14.99;70.23;101845.50;4930253;29;20067;-82
2022/07/18 02:00:41;;;;;;;3.88;1.88;;;;;;;14.95;70.15;101841.09;4927419;29;20100;-87
2022/07/18 02:03:07;;;;;;;6.20;1.88;;;;;;;14.93;70.44;101849.91;4923915;29;20061;-82
2022/07/18 02:05:34;;;;;;;3.42;1.52;;;;;;;14.88;70.40;101845.56;4925122;29;20043;-84
2022/07/18 02:08:01;;;;;;;6.43;1.70;;;;;;;14.84;69.95;101841.19;4942540;28;20053;-85
2022/07/18 02:10:28;;;;;;;3.97;1.92;;;;;;;14.82;70.46;101843.00;4940815;29;20396;-85
2022/07/18 02:12:54;;;;;;;3.83;1.83;;;;;;;14.78;70.43;101841.22;4923211;29;20051;-84
2022/07/18 02:15:21;;;;;;;4.25;1.73;;;;;;;14.75;70.60;101845.69;4937901;28;20043;-84
2022/07/18 02:17:49;;;;;;;2.05;1.67;;;;;;;14.71;70.86;101837.78;4938718;29;20047;-85
2022/07/18 02:20:16;;;;;;;3.22;1.83;;;;;;;14.70;71.11;101827.25;4920635;29;20110;-83
2022/07/18 02:22:43;;;;;;;2.38;1.52;;;;;;;14.67;71.53;101824.66;4922561;29;20441;-84
2022/07/18 02:25:11;;;;;;;5.68;2.25;;;;;;;14.63;71.35;101830.78;4935217;29;20070;-84
2022/07/18 02:27:38;;;;;;;2.35;1.65;;;;;;;14.59;71.25;101827.31;4920785;29;20058;-86
2022/07/18 02:30:08;;;;;;;3.38;1.20;;;;;;;14.53;71.06;101822.94;4921345;28;20082;-85
2022/07/18 02:32:37;;;;;;;2.40;1.55;;;;;;;14.50;71.90;101822.09;4923973;28;20043;-85
2022/07/18 02:35:13;;;;;;;4.60;1.63;;;;;;;14.44;71.51;101824.75;4921976;29;20043;-85
2022/07/18 02:37:41;;;;;;;1.40;1.30;;;;;;;14.42;71.88;101816.88;4943659;28;20131;-84
2022/07/18 02:40:11;;;;;;;4.45;1.42;;;;;;;14.39;72.06;101815.13;4925596;28;20149;-82
2022/07/18 02:42:38;;;;;;;2.95;1.77;;;;;;;14.35;72.36;101810.78;4921796;28;20074;-85
2022/07/18 02:45:07;;;;;;;3.83;1.40;;;;;;;14.31;72.09;101816.91;4940598;28;20089;-82
2022/07/18 02:47:34;;;;;;;3.05;1.55;;;;;;;14.27;72.26;101816.97;4957535;28;20045;-85
2022/07/18 02:50:01;;;;;;;7.13;2.20;;;;;;;14.22;72.21;101816.97;4942858;29;20390;-82
2022/07/18 02:52:28;;;;;;;6.85;1.25;;;;;;;14.19;72.26;101814.38;4922372;29;20043;-84
2022/07/18 02:54:56;;;;;;;3.55;1.98;;;;;;;14.14;72.02;101805.63;4920376;29;20095;-81
2022/07/18 02:57:24;;;;;;;3.88;1.38;;;;;;;14.11;72.18;101808.28;4934966;29;20418;-85
2022/07/18 02:59:50;;;;;;;2.08;1.13;;;;;;;14.07;72.88;101808.28;4919269;29;20055;-84
2022/07/18 03:02:17;;;;;;;2.38;1.13;;;;;;;14.01;72.50;101810.94;4936146;29;20047;-85
2022/07/18 03:04:44;;;;;;;4.35;1.25;;;;;;;13.98;72.84;101815.34;4935492;29;20114;-84
2022/07/18 03:07:10;;;;;;;2.35;1.50;;;;;;;13.92;72.97;101810.97;4936421;29;20161;-83
2022/07/18 03:09:37;;;;;;;3.00;1.30;;;;;;;13.88;73.22;101817.13;4934267;29;20055;-87
2022/07/18 03:12:06;;;;;;;3.45;1.77;;;;;;;13.86;73.19;101813.66;4919522;29;20055;-85
2022/07/18 03:14:33;;;;;;;5.82;1.20;;;;;;;13.81;73.33;101813.66;4948412;28;20036;-86
2022/07/18 03:17:00;;;;;;;4.28;1.77;;;;;;;13.83;73.55;101817.16;4925769;29;20391;-83
2022/07/18 03:19:27;;;;;;;4.40;1.73;;;;;;;13.81;73.28;101811.03;4935077;29;20075;-84
2022/07/18 03:21:56;;;;;;;1.65;1.40;;;;;;;13.82;73.24;101809.25;4934864;29;20326;-83
2022/07/18 03:24:23;;;;;;;1.52;1.38;;;;;;;13.83;73.23;101814.53;4932942;29;20563;-87
2022/07/18 03:26:50;;;;;;;3.38;1.67;;;;;;;13.82;72.99;101811.88;4915950;29;20032;-85
2022/07/18 03:29:16;;;;;;;5.03;1.63;;;;;;;13.81;73.22;101807.53;4948067;28;20048;-86
2022/07/18 03:31:43;;;;;;;2.60;1.35;;;;;;;13.79;73.62;101810.13;4932759;29;20059;-83
2022/07/18 03:34:10;;;;;;;2.13;1.45;;;;;;;13.79;73.40;101810.13;4933120;29;20047;-82
2022/07/18 03:36:36;;;;;;;7.00;1.25;;;;;;;13.79;73.50;101815.41;4920707;29;20051;-84
2022/07/18 03:39:05;;;;;;;4.35;1.58;;;;;;;13.78;73.37;101815.41;4936195;29;20099;-86
2022/07/18 03:41:32;;;;;;;5.05;1.67;;;;;;;13.78;73.16;101810.16;4934495;29;20051;-83
2022/07/18 03:43:59;;;;;;;2.78;1.23;;;;;;;13.77;73.63;101806.66;4930257;29;20083;-85
2022/07/18 03:46:26;;;;;;;2.63;1.60;;;;;;;13.78;73.24;101803.16;4918702;29;20142;-86
2022/07/18 03:48:52;;;;;;;2.80;1.52;;;;;;;13.80;73.21;101798.75;4936431;29;20036;-85
2022/07/18 03:51:19;;;;;;;2.45;1.50;;;;;;;13.80;72.77;101796.09;4937521;29;20043;-83
2022/07/18 03:53:46;;;;;;;4.20;1.80;;;;;;;13.80;72.49;101793.47;4935112;29;20051;-84
2022/07/18 03:56:14;;;;;;;3.80;1.50;;;;;;;13.79;72.39;101791.72;4938851;29;20439;-85
2022/07/18 03:58:43;;;;;;;2.22;1.40;;;;;;;13.79;72.57;101794.34;4939782;29;20048;-83
2022/07/18 04:01:10;;;;;;;4.60;2.15;;;;;;;13.79;72.58;101789.09;4937258;29;20136;-85
2022/07/18 04:03:37;;;;;;;4.60;1.35;;;;;;;13.80;72.56;101795.25;4921105;29;20044;-86
2022/07/18 04:06:06;;;;;;;1.98;1.13;;;;;;;13.81;72.65;101799.63;4936567;29;20047;-85
2022/07/18 04:08:33;;;;;;;4.80;1.73;;;;;;;13.86;73.04;101803.13;4918733;29;20074;-85
2022/07/18 04:11:00;;;;;;;3.25;1.45;;;;;;;13.89;73.47;101805.72;4922786;29;20056;-85
2022/07/18 04:13:27;;;;;;;2.60;1.50;;;;;;;13.89;73.49;101796.06;4934725;29;20434;-83
2022/07/18 04:15:53;;;;;;;3.25;1.80;;;;;;;13.91;73.20;101801.34;4919177;29;20503;-83
2022/07/18 04:18:25;;;;;;;2.38;1.58;;;;;;;13.93;73.28;101801.34;4937058;29;20044;-85
2022/07/18 04:20:52;;;;;;;4.05;1.77;;;;;;;13.92;74.08;101795.19;4938145;29;20047;-84
2022/07/18 04:23:19;;;;;;;1.85;1.50;;;;;;;14.00;73.23;101784.59;4936928;29;20048;-82
2022/07/18 04:25:46;;;;;;;2.15;1.92;;;;;;;14.11;73.05;101779.31;4923533;29;20071;-84
2022/07/18 04:28:14;;;;;;;4.13;1.90;;;;;;;14.20;72.93;101774.00;4915597;29;20111;-84
2022/07/18 04:30:43;;;;;;;5.03;2.28;;;;;;;14.24;72.42;101778.34;4924097;29;20047;-85
2022/07/18 04:33:11;;;;;;;5.07;1.73;;;;;;;14.27;72.50;101780.09;4934029;29;20130;-82
2022/07/18 04:35:39;;;;;;;2.50;2.25;;;;;;;14.28;72.43;101780.06;4936333;29;20044;-83
2022/07/18 04:38:09;;;;;;;5.32;1.88;;;;;;;14.26;72.22;101779.19;4933414;29;20366;-84
2022/07/18 04:40:37;;;;;;;3.47;1.77;;;;;;;14.26;72.27;101780.97;4923063;29;20155;-86
2022/07/18 04:43:07;;;;;;;5.25;1.90;;;;;;;14.30;71.98;101783.59;4938838;29;20055;-82
2022/07/18 04:45:36;;;;;;;8.40;2.25;;;;;;;14.44;71.55;101790.50;4938830;29;20044;-83
2022/07/18 04:48:06;;;;;;;3.92;2.30;;;;;;;14.53;70.92;101780.75;4919581;29;20127;-81
2022/07/18 04:50:33;;;;;;;4.30;2.15;;;;;;;14.66;70.35;101772.81;4933680;29;20131;-84
2022/07/18 04:53:01;;;;;;;4.15;1.95;;;;;;;14.75;69.90;101762.19;4954128;28;20112;-86
2022/07/18 04:55:28;;;;;;;1.80;1.70;;;;;;;14.83;69.40;101768.25;4940659;29;20070;-83
2022/07/18 04:57:56;;;;;;;4.03;2.00;;;;;;;14.88;68.92;101774.38;4941612;28;20098;-84
2022/07/18 05:00:26;;;;;;;3.58;1.85;;;;;;;14.96;68.62;101771.66;4936004;28;20051;-85
2022/07/18 05:02:56;;;;;;;4.70;1.80;;;;;;;15.05;68.13;101781.25;4941976;29;20478;-84
2022/07/18 05:05:25;;;;;;;7.18;1.75;;;;;;;15.12;67.71;101777.69;4928865;29;20106;-83
2022/07/18 05:07:52;;;;;;;7.25;2.13;;;;;;;15.20;67.04;101773.19;4925842;29;20128;-83
2022/07/18 05:10:23;;;;;;;5.45;2.00;;;;;;;15.26;66.62;101774.88;4927620;29;20059;-84
2022/07/18 05:12:56;;;;;;;1.55;1.45;;;;;;;15.32;66.07;101772.19;4912739;29;20047;-83
2022/07/18 05:15:25;;;;;;;2.83;1.50;;;;;;;15.40;65.29;101774.75;4917385;29;20043;-82
2022/07/18 05:17:54;;;;;;;1.48;1.30;;;;;;;15.44;64.69;101770.31;4945444;29;20051;-82
2022/07/18 05:20:25;;;;;;;5.13;1.25;;;;;;;15.52;64.38;101766.69;4921161;29;20055;-84
2022/07/18 05:22:56;;;;;;;4.80;2.10;;;;;;;15.64;63.88;101770.06;4910265;29;20047;-83
2022/07/18 05:25:24;;;;;;;4.45;2.03;;;;;;;15.72;63.53;101765.56;4939973;29;20044;-83
2022/07/18 05:27:52;;;;;;;4.45;1.50;;;;;;;15.80;63.12;101766.34;4938981;29;20039;-84
2022/07/18 05:30:21;;;;;;;6.75;1.73;;;;;;;15.85;62.80;101759.28;4948099;28;20286;-85
2022/07/18 05:32:54;;;;;;;2.40;1.13;;;;;;;15.91;62.21;101762.75;4940759;29;20058;-83
2022/07/18 05:35:22;;;;;;;1.35;1.15;;;;;;;15.96;62.03;101758.28;4941774;29;20217;-84
2022/07/18 05:37:49;;;;;;;2.40;1.08;;;;;;;16.03;61.84;101758.16;4943827;29;20113;-84
2022/07/18 05:40:16;;;;;;;3.35;1.70;;;;;;;16.09;61.35;101765.13;4927487;29;20138;-83
2022/07/18 05:42:45;;;;;;;4.75;1.25;;;;;;;16.18;61.16;101769.41;4944341;29;20111;-84
2022/07/18 05:45:13;;;;;;;3.42;1.17;;;;;;;16.30;60.63;101781.56;4922680;29;20056;-84
2022/07/18 05:47:42;;;;;;;3.38;1.20;;;;;;;16.42;59.83;101773.44;4943780;29;20471;-83
2022/07/18 05:50:10;;;;;;;4.97;1.38;;;;;;;16.57;59.29;101776.72;4923550;29;20856;-86
2022/07/18 05:52:41;;;;;;;5.03;2.00;;;;;;;16.63;58.83;101777.50;4929332;29;20136;-84
2022/07/18 05:55:15;;;;;;;1.90;1.38;;;;;;;16.69;58.69;101764.19;4942616;28;20024;-83
2022/07/18 05:57:45;;;;;;;7.10;1.38;;;;;;;16.80;58.14;101757.84;4930652;29;20055;-84
2022/07/18 06:00:19;;;;;;;6.72;1.42;;;;;;;16.87;57.60;101760.34;4929344;29;20071;-83
2022/07/18 06:02:49;;;;;;;4.45;1.10;;;;;;;16.94;57.00;101762.94;4925906;29;20071;-84
2022/07/18 06:05:17;;;;;;;6.93;1.30;;;;;;;17.01;56.87;101764.56;4924329;29;20353;-82
2022/07/18 06:07:47;;;;;;;4.70;0.98;;;;;;;17.09;56.52;101769.72;4944420;29;20048;-82
2022/07/18 06:10:18;;;;;;;1.30;0.98;;;;;;;17.16;56.06;101766.06;4926507;29;20047;-82
2022/07/18 06:12:49;;;;;;;5.45;1.10;;;;;;;17.26;55.87;101758.81;4943822;29;20526;-83
2022/07/18 06:15:16;;;;;;;3.28;1.08;;;;;;;17.38;55.52;101760.34;4943030;29;20158;-82
2022/07/18 06:17:46;;;;;;;1.75;1.30;;;;;;;17.54;55.43;101751.19;4924600;29;20064;-83
2022/07/18 06:20:13;;;;;;;2.53;0.95;;;;;;;17.74;55.33;101748.13;4943142;29;20044;-83
2022/07/18 06:22:40;;;;;;;3.75;0.98;;;;;;;17.91;54.52;101749.53;4921863;29;20063;-83
2022/07/18 06:25:15;;;;;;;1.27;0.88;;;;;;;18.04;53.73;101742.22;4934527;29;20048;-84
2022/07/18 06:27:47;;;;;;;4.70;0.80;;;;;;;18.22;53.55;101739.13;4940737;29;20047;-85
2022/07/18 06:30:14;;;;;;;3.22;1.40;;;;;;;18.37;53.24;101745.88;4936892;29;20051;-83
2022/07/18 06:32:42;;;;;;;2.20;0.98;;;;;;;18.49;52.65;101742.03;4939698;29;20058;-83
2022/07/18 06:35:09;;;;;;;2.25;0.90;;;;;;;18.69;52.83;101746.84;4923258;29;20056;-84
2022/07/18 06:37:37;;;;;;;4.38;0.98;;;;;;;18.89;51.87;101726.88;4937675;29;20044;-83
2022/07/18 06:40:07;;;;;;;2.45;0.88;;;;;;;19.11;51.48;101736.06;4921000;29;20048;-85
2022/07/18 06:42:34;;;;;;;3.40;1.40;;;;;;;19.27;50.43;101736.50;4922012;29;20429;-85
2022/07/18 06:45:02;;;;;;;1.98;1.35;;;;;;;19.39;50.14;101742.38;4921863;29;20746;-85
2022/07/18 06:47:29;;;;;;;2.00;1.15;;;;;;;19.46;50.04;101738.59;4923454;29;20078;-85
2022/07/18 06:49:56;;;;;;;3.70;1.05;;;;;;;19.50;49.35;101737.59;4941512;29;20252;-84
2022/07/18 06:52:29;;;;;;;6.55;1.60;;;;;;;19.49;49.20;101734.09;4917072;29;20067;-82
2022/07/18 06:54:56;;;;;;;3.42;1.38;;;;;;;19.56;48.81;101734.78;4955626;28;20048;-85
2022/07/18 06:57:24;;;;;;;2.13;1.10;;;;;;;19.59;48.49;101736.47;4938141;29;20495;-84
2022/07/18 06:59:53;;;;;;;1.30;1.20;;;;;;;19.66;48.70;101732.72;4924002;29;20043;-82
2022/07/18 07:02:20;;;;;;;2.47;1.33;;;;;;;19.87;48.36;101733.91;4937666;29;20039;-83
2022/07/18 07:04:47;;;;;;;3.25;0.63;;;;;;;20.10;47.65;101734.94;4922632;29;20052;-84
2022/07/18 07:07:21;;;;;;;1.52;0.90;;;;;;;20.26;47.34;101732.66;4954083;28;20058;-86
2022/07/18 07:09:49;;;;;;;2.20;1.20;;;;;;;20.37;47.24;101733.19;4941936;29;20043;-85
2022/07/18 07:12:16;;;;;;;1.95;1.17;;;;;;;20.47;47.56;101739.94;4939979;29;20079;-85
2022/07/18 07:14:45;;;;;;;3.03;1.20;;;;;;;20.58;47.34;101728.09;4922359;29;20076;-86
2022/07/18 07:17:12;;;;;;;1.70;0.70;;;;;;;20.62;47.29;101724.41;4936511;29;20055;-85
2022/07/18 07:19:41;;;;;;;3.25;1.02;;;;;;;20.67;47.31;101715.31;4926858;29;20055;-84
2022/07/18 07:22:08;;;;;;;2.95;1.02;;;;;;;20.66;47.28;101712.72;4955851;28;20040;-85
2022/07/18 07:24:36;;;;;;;3.63;0.77;;;;;;;20.62;47.67;101719.06;4924741;29;20046;-84
2022/07/18 07:27:06;;;;;;;1.00;0.88;;;;;;;20.66;47.49;101724.25;4939970;29;20070;-84
2022/07/18 07:29:33;;;;;;;3.78;1.15;;;;;;;20.83;47.43;101722.81;4938919;29;20047;-84
2022/07/18 07:32:00;;;;;;;1.33;0.90;;;;;;;20.96;47.40;101720.59;4923746;29;20083;-86
2022/07/18 07:34:28;;;;;;;4.55;1.52;;;;;;;21.02;47.16;101722.19;4935529;29;20054;-85
2022/07/18 07:36:55;;;;;;;3.65;1.88;;;;;;;21.04;47.19;101721.19;4936274;29;20040;-82
2022/07/18 07:39:25;;;;;;;2.75;1.00;;;;;;;21.14;46.94;101717.25;4936691;29;20047;-84
2022/07/18 07:41:52;;;;;;;2.67;0.90;;;;;;;21.44;46.73;101724.19;4923840;29;20090;-84
2022/07/18 07:44:19;;;;;;;2.50;0.95;;;;;;;21.81;45.83;101728.13;4922340;29;20634;-84
2022/07/18 07:46:46;;;;;;;1.05;0.90;;;;;;;22.23;45.24;101721.16;4942519;29;20076;-83
2022/07/18 07:49:13;;;;;;;1.10;0.63;;;;;;;22.67;44.13;101721.13;4923438;29;20470;-84
2022/07/18 07:51:40;;;;;;;3.22;0.93;;;;;;;23.13;43.28;101721.75;4938533;29;20056;-84
2022/07/18 07:54:07;;;;;;;2.05;1.30;;;;;;;23.76;42.41;101725.16;4934123;28;20448;-85
2022/07/18 07:56:34;;;;;;;4.03;1.23;;;;;;;24.17;41.00;101718.78;4938960;29;20047;-83
2022/07/18 07:59:04;;;;;;;1.95;1.00;;;;;;;24.31;40.53;101716.28;4928064;29;20045;-85
2022/07/18 08:01:31;;;;;;;3.28;0.98;;;;;;;24.53;40.39;101716.06;4929454;28;20054;-83
2022/07/18 08:03:58;;;;;;;1.35;0.40;;;;;;;24.78;39.84;101706.78;4925800;29;20043;-83
2022/07/18 08:06:32;;;;;;;4.60;0.98;;;;;;;25.20;38.44;101705.47;4926060;28;20106;-86
2022/07/18 08:08:59;;;;;;;3.17;0.60;;;;;;;25.91;37.76;101704.25;4942618;29;20043;-84
2022/07/18 08:11:26;;;;;;;2.45;1.38;;;;;;;26.35;36.76;101701.81;4928842;28;20083;-85
2022/07/18 08:13:53;;;;;;;4.78;1.05;;;;;;;26.20;36.38;101695.50;4945763;29;20059;-85
2022/07/18 08:16:20;;;;;;;0.63;0.45;;;;;;;26.29;36.55;101700.31;4943214;28;20118;-82
2022/07/18 08:18:47;;;;;;;3.20;0.82;;;;;;;26.48;36.08;101699.22;4943710;28;20086;-83
2022/07/18 08:21:14;;;;;;;3.42;1.05;;;;;;;26.76;35.76;101702.97;4944355;29;20050;-85
2022/07/18 08:23:42;;;;;;;1.45;1.00;;;;;;;27.29;34.79;101700.63;4960543;28;20051;-84
2022/07/18 08:26:09;;;;;;;1.40;1.00;;;;;;;27.79;32.85;101699.19;4929694;29;20138;-83
2022/07/18 08:28:36;;;;;;;1.55;1.02;;;;;;;28.32;32.51;101698.47;4948061;29;20074;-84
2022/07/18 08:31:07;;;;;;;1.20;0.88;;;;;;;28.65;32.29;101689.91;4933385;28;20107;-85
2022/07/18 08:33:43;;;;;;;2.85;1.08;;;;;;;28.82;31.35;101687.88;4930264;29;20055;-85
2022/07/18 08:36:09;;;;;;;8.02;1.00;;;;;;;29.49;30.74;101679.53;4920480;28;20055;-84
2022/07/18 08:38:39;;;;;;;2.03;0.57;;;;;;;30.44;29.91;101676.06;4947199;28;20043;-84
2022/07/18 08:41:12;;;;;;;1.50;1.10;;;;;;;31.07;28.36;101675.72;4932942;29;20055;-86
2022/07/18 08:43:44;;;;;;;2.80;0.68;;;;;;;31.45;28.36;101679.84;4943883;28;20083;-84
2022/07/18 08:46:13;;;;;;;3.15;1.17;;;;;;;31.70;28.10;101685.97;4945143;28;20146;-84
2022/07/18 08:48:45;;;;;;;3.47;0.65;;;;;;;31.79;27.29;101685.22;4933471;29;20035;-85
2022/07/18 08:51:14;;;;;;;3.45;1.42;;;;;;;31.71;27.72;101687.69;4946085;28;20098;-84
2022/07/18 08:53:44;;;;;;;2.67;0.95;;;;;;;31.76;27.31;101685.47;4938969;29;20058;-85
2022/07/18 08:56:14;;;;;;;0.93;0.82;;;;;;;32.09;27.12;101683.63;4912148;29;20123;-86
2022/07/18 08:58:43;;;;;;;2.58;1.08;;;;;;;32.67;26.29;101690.47;4912057;29;20040;-86
2022/07/18 09:01:13;;;;;;;1.90;0.82;;;;;;;33.13;25.56;101689.16;4927600;29;20079;-83
2022/07/18 09:04:14;;;;;;;1.42;0.80;;;;;;;33.55;24.97;101692.75;4903458;29;20051;-84
2022/07/18 09:06:46;;;;;;;2.45;0.75;;;;;;;34.04;23.38;101677.41;4924834;29;20055;-85
2022/07/18 09:09:17;;;;;;;1.42;0.65;;;;;;;34.49;24.05;101675.94;4926595;29;20040;-84
2022/07/18 09:12:11;;;;;;;1.75;0.70;;;;;;;34.89;22.47;101676.72;4927778;29;20082;-86
2022/07/18 09:14:52;;;;;;;3.70;0.63;;;;;;;35.02;22.27;101671.81;4926118;29;20055;-88
2022/07/18 09:17:28;;;;;;;6.93;1.40;;;;;;;35.29;22.30;101678.22;4911124;29;20083;-86
2022/07/18 09:20:11;;;;;;;1.85;1.00;;;;;;;35.47;22.07;101675.59;4925382;29;20438;-84
2022/07/18 09:22:48;;;;;;;2.72;1.45;;;;;;;35.84;21.39;101673.75;4925610;29;20071;-85
2022/07/18 09:25:24;;;;;;;0.90;0.63;;;;;;;35.99;21.51;101674.09;4943111;29;20052;-85
2022/07/18 09:28:06;;;;;;;3.45;1.20;;;;;;;36.62;19.73;101659.41;4921719;29;20079;-85
2022/07/18 09:30:37;;;;;;;0.80;0.80;;;;;;;37.14;19.58;101661.22;4938970;29;20410;-83
2022/07/18 09:33:03;;;;;;;1.90;0.50;;;;;;;37.66;19.44;101657.47;4927506;29;20043;-86
2022/07/18 09:35:43;;;;;;;1.45;0.95;;;;;;;37.39;19.15;101656.75;4942412;29;20044;-85
2022/07/18 09:38:23;;;;;;;2.80;1.17;;;;;;;37.82;18.99;101653.06;4925930;29;20138;-85
2022/07/18 09:40:57;;;;;;;1.58;0.70;;;;;;;38.12;18.22;101658.88;4944920;29;20189;-86
2022/07/18 09:43:26;;;;;;;1.92;0.70;;;;;;;38.20;17.82;101654.28;4928416;29;20066;-86
2022/07/18 09:45:57;;;;;;;5.97;0.82;;;;;;;38.13;17.08;101657.88;4912331;29;20107;-85
2022/07/18 09:48:28;;;;;;;2.95;1.00;;;;;;;38.18;17.64;101650.84;4911956;29;20048;-85
2022/07/18 09:51:14;;;;;;;2.75;0.88;;;;;;;38.63;17.16;101645.84;4943759;29;20407;-86
2022/07/18 09:53:45;;;;;;;1.10;0.90;;;;;;;38.82;16.64;101644.59;4931787;29;20071;-85
2022/07/18 09:56:25;;;;;;;1.97;1.20;;;;;;;38.79;16.02;101642.22;4933527;28;20047;-86
2022/07/18 09:59:04;;;;;;;1.00;1.00;;;;;;;39.35;16.04;101633.94;4948164;29;20040;-85
2022/07/18 10:01:31;;;;;;;1.75;1.65;;;;;;;39.44;15.52;101632.00;4946833;28;20039;-84
2022/07/18 10:04:02;;;;;;;1.67;1.58;;;;;;;38.99;15.79;101630.84;4947786;28;20050;-85
2022/07/18 10:06:29;;;;;;;2.15;1.45;;;;;;;39.10;15.90;101627.72;4930880;29;20057;-85
2022/07/18 10:09:11;;;;;;;2.70;1.70;;;;;;;39.11;15.16;101629.41;4959009;28;22581;-84
2022/07/18 10:11:39;;;;;;;2.13;1.98;;;;;;;38.58;15.82;101630.97;4926930;29;20039;-85
2022/07/18 10:14:10;;;;;;;2.08;1.98;;;;;;;38.25;16.25;101631.03;4930896;28;20047;-86
2022/07/18 10:16:39;;;;;;;1.90;1.80;;;;;;;38.78;15.59;101632.31;4948783;29;20105;-85
2022/07/18 10:19:16;;;;;;;2.25;1.45;;;;;;;39.52;15.38;101631.09;4950043;28;20048;-86
2022/07/18 10:21:48;;;;;;;2.28;1.67;;;;;;;40.58;14.57;101630.38;4934262;29;20066;-85
2022/07/18 10:24:19;;;;;;;1.58;1.50;;;;;;;40.62;14.66;101626.19;4946897;29;20066;-85
2022/07/18 10:27:18;;;;;;;2.65;2.22;;;;;;;40.58;13.91;101613.91;4932508;29;20086;-86
2022/07/18 10:30:11;;;;;;;1.80;1.70;;;;;;;40.45;13.83;101617.28;4945923;28;20039;-86
2022/07/18 10:32:48;;;;;;;1.73;1.60;;;;;;;40.42;14.38;101614.88;4963218;28;20103;-85
2022/07/18 10:35:18;;;;;;;2.45;1.85;;;;;;;40.31;14.33;101611.59;4934016;28;20071;-84
2022/07/18 10:37:51;;;;;;;2.42;1.50;;;;;;;40.32;14.33;101615.19;4941167;28;20137;-86
2022/07/18 10:40:31;;;;;;;2.53;1.50;;;;;;;40.47;14.37;101618.78;4931181;29;20059;-86
2022/07/18 10:43:29;;;;;;;3.40;1.67;;;;;;;40.43;13.72;101616.59;4945982;29;20067;-83
2022/07/18 10:48:45;;;;;;;1.65;1.55;;;;;;;40.83;14.11;101612.56;4928889;28;20221;-86
2022/07/18 10:51:17;;;;;;;2.00;1.80;;;;;;;41.20;14.12;101598.88;4942537;28;20055;-84
2022/07/18 10:53:58;;;;;;;1.88;1.67;;;;;;;41.29;13.73;101607.81;4942776;29;20137;-89
2022/07/18 10:56:40;;;;;;;1.55;1.40;;;;;;;40.79;13.57;101602.97;4945956;28;20070;-85
2022/07/18 10:59:24;;;;;;;1.55;1.45;;;;;;;40.52;13.39;101610.00;4959960;28;20077;-86
2022/07/18 11:01:56;;;;;;;1.58;1.40;;;;;;;40.29;13.94;101602.69;4927897;29;20079;-85
2022/07/18 11:04:44;;;;;;;2.15;1.17;;;;;;;40.17;14.56;101598.72;4941669;29;20142;-83
2022/07/18 11:07:18;;;;;;;1.95;1.40;;;;;;;40.54;14.39;101590.63;4943940;28;20039;-85
2022/07/18 11:09:51;;;;;;;1.33;1.33;;;;;;;40.08;13.97;101589.72;4925430;28;20046;-87
2022/07/18 11:12:32;;;;;;;1.85;1.75;;;;;;;40.17;13.77;101583.13;4942821;29;20248;-86
2022/07/18 11:15:17;;;;;;;1.77;1.67;;;;;;;39.91;13.47;101580.78;4930400;29;20055;-85
2022/07/18 11:18:05;;;;;;;2.40;2.22;;;;;;;39.78;14.02;101586.03;4925949;29;20051;-84
2022/07/18 11:20:47;;;;;;;2.03;1.73;;;;;;;40.63;13.73;101575.75;4926701;28;20046;-88
2022/07/18 11:23:25;;;;;;;3.80;1.77;;;;;;;40.43;14.18;101576.31;4942424;29;20062;-85
2022/07/18 11:25:59;;;;;;;1.80;1.13;;;;;;;40.60;13.49;101573.38;4953937;28;20098;-85
2022/07/18 11:28:37;;;;;;;3.75;1.95;;;;;;;40.09;13.69;101576.84;4945959;28;20039;-84
2022/07/18 11:31:18;;;;;;;3.00;2.03;;;;;;;38.93;14.46;101568.59;4948746;28;20035;-88
2022/07/18 11:33:55;;;;;;;1.83;1.73;;;;;;;39.31;14.60;101560.50;4963859;28;20091;-85
2022/07/18 11:36:40;;;;;;;1.60;1.50;;;;;;;39.84;13.95;101557.88;4946107;28;20054;-86
2022/07/18 11:39:07;;;;;;;3.08;1.40;;;;;;;39.20;14.45;101559.94;4934050;28;20122;-86
2022/07/18 11:41:45;;;;;;;1.55;1.17;;;;;;;38.54;15.24;101545.69;4945652;29;20058;-85
2022/07/18 11:44:30;;;;;;;1.40;1.30;;;;;;;37.61;15.70;101550.56;4945330;28;20047;-85